sensor_id;sensor_type;location;lat;lon;timestamp;temperature;humidity
58517;DHT22;44308;50.810;0.284;2022-11-15T00:00:55;12.20;99.90
58517;DHT22;44308;50.810;0.284;2022-11-15T00:03:23;12.30;99.90
58517;DHT22;44308;50.810;0.284;2022-11-15T00:05:49;12.30;99.90
58517;DHT22;44308;50.810;0.284;2022-11-15T00:08:15;12.20;99.90
58517;DHT22;44308;50.810;0.284;2022-11-15T00:10:42;12.20;99.90
58517;DHT22;44308;50.810;0.284;2022-11-15T00:13:12;12.30;99.90
58517;DHT22;44308;50.810;0.284;2022-11-15T00:15:40;12.20;99.90
58517;DHT22;44308;50.810;0.284;2022-11-15T00:18:11;12.10;99.90
58517;DHT22;44308;50.810;0.284;2022-11-15T00:20:38;12.00;99.90
58517;DHT22;44308;50.810;0.284;2022-11-15T00:23:04;12.00;99.90
58517;DHT22;44308;50.810;0.284;2022-11-15T00:25:30;12.10;99.90
58517;DHT22;44308;50.810;0.284;2022-11-15T00:27:57;12.20;99.90
58517;DHT22;44308;50.810;0.284;2022-11-15T00:30:23;12.20;99.90
58517;DHT22;44308;50.810;0.284;2022-11-15T00:32:49;12.30;99.90
58517;DHT22;44308;50.810;0.284;2022-11-15T00:38:39;12.20;99.90
58517;DHT22;44308;50.810;0.284;2022-11-15T00:41:07;12.20;99.90
58517;DHT22;44308;50.810;0.284;2022-11-15T00:43:33;12.30;99.90
58517;DHT22;44308;50.810;0.284;2022-11-15T00:46:20;12.30;99.90
58517;DHT22;44308;50.810;0.284;2022-11-15T00:48:45;12.40;99.90
58517;DHT22;44308;50.810;0.284;2022-11-15T00:51:11;12.50;99.90
58517;DHT22;44308;50.810;0.284;2022-11-15T00:53:37;12.50;99.90
58517;DHT22;44308;50.810;0.284;2022-11-15T00:56:21;12.70;99.90
58517;DHT22;44308;50.810;0.284;2022-11-15T00:58:47;12.50;99.90
58517;DHT22;44308;50.810;0.284;2022-11-15T01:01:14;12.70;99.90
58517;DHT22;44308;50.810;0.284;2022-11-15T01:03:40;12.70;99.90
58517;DHT22;44308;50.810;0.284;2022-11-15T01:06:09;12.70;99.90
58517;DHT22;44308;50.810;0.284;2022-11-15T01:08:35;12.70;99.90
58517;DHT22;44308;50.810;0.284;2022-11-15T01:11:07;12.60;99.90
58517;DHT22;44308;50.810;0.284;2022-11-15T01:13:35;12.70;99.90
58517;DHT22;44308;50.810;0.284;2022-11-15T01:19:41;12.70;99.90
58517;DHT22;44308;50.810;0.284;2022-11-15T01:22:07;12.50;99.90
58517;DHT22;44308;50.810;0.284;2022-11-15T01:24:32;12.60;99.90
58517;DHT22;44308;50.810;0.284;2022-11-15T01:26:59;12.40;99.90
58517;DHT22;44308;50.810;0.284;2022-11-15T01:29:24;12.50;99.90
58517;DHT22;44308;50.810;0.284;2022-11-15T01:31:50;12.60;99.90
58517;DHT22;44308;50.810;0.284;2022-11-15T01:34:15;12.40;99.90
58517;DHT22;44308;50.810;0.284;2022-11-15T01:36:41;12.40;99.90
58517;DHT22;44308;50.810;0.284;2022-11-15T01:39:07;12.70;99.90
58517;DHT22;44308;50.810;0.284;2022-11-15T01:41:33;12.70;99.90
58517;DHT22;44308;50.810;0.284;2022-11-15T01:47:03;12.70;99.90
58517;DHT22;44308;50.810;0.284;2022-11-15T01:49:32;12.50;99.90
58517;DHT22;44308;50.810;0.284;2022-11-15T01:52:01;12.50;99.90
58517;DHT22;44308;50.810;0.284;2022-11-15T01:54:28;12.60;99.90
58517;DHT22;44308;50.810;0.284;2022-11-15T01:57:12;12.80;99.90
58517;DHT22;44308;50.810;0.284;2022-11-15T01:59:42;12.80;99.90
58517;DHT22;44308;50.810;0.284;2022-11-15T02:02:08;12.60;99.90
58517;DHT22;44308;50.810;0.284;2022-11-15T02:04:39;12.90;99.90
58517;DHT22;44308;50.810;0.284;2022-11-15T02:07:06;13.00;99.90
58517;DHT22;44308;50.810;0.284;2022-11-15T02:09:36;12.80;99.90
58517;DHT22;44308;50.810;0.284;2022-11-15T02:12:02;12.70;99.90
58517;DHT22;44308;50.810;0.284;2022-11-15T02:14:28;13.10;99.90
58517;DHT22;44308;50.810;0.284;2022-11-15T02:31:51;13.20;99.90
58517;DHT22;44308;50.810;0.284;2022-11-15T02:34:28;13.00;99.90
58517;DHT22;44308;50.810;0.284;2022-11-15T02:43:11;12.80;99.90
58517;DHT22;44308;50.810;0.284;2022-11-15T02:49:15;13.20;99.90
58517;DHT22;44308;50.810;0.284;2022-11-15T02:51:42;12.90;99.90
58517;DHT22;44308;50.810;0.284;2022-11-15T02:54:15;13.20;99.90
58517;DHT22;44308;50.810;0.284;2022-11-15T02:56:45;13.20;99.90
58517;DHT22;44308;50.810;0.284;2022-11-15T03:02:17;12.90;99.90
58517;DHT22;44308;50.810;0.284;2022-11-15T03:04:57;13.20;99.90
58517;DHT22;44308;50.810;0.284;2022-11-15T03:07:29;13.30;99.90
58517;DHT22;44308;50.810;0.284;2022-11-15T03:12:33;13.00;99.90
58517;DHT22;44308;50.810;0.284;2022-11-15T03:15:12;12.90;99.90
58517;DHT22;44308;50.810;0.284;2022-11-15T03:17:51;13.20;99.90
58517;DHT22;44308;50.810;0.284;2022-11-15T03:20:19;13.30;99.90
58517;DHT22;44308;50.810;0.284;2022-11-15T03:22:47;13.30;99.90
58517;DHT22;44308;50.810;0.284;2022-11-15T03:25:19;13.10;99.90
58517;DHT22;44308;50.810;0.284;2022-11-15T03:27:48;13.50;99.90
58517;DHT22;44308;50.810;0.284;2022-11-15T03:30:16;13.10;99.90
58517;DHT22;44308;50.810;0.284;2022-11-15T03:32:50;13.10;99.90
58517;DHT22;44308;50.810;0.284;2022-11-15T03:38:25;13.10;99.90
58517;DHT22;44308;50.810;0.284;2022-11-15T03:40:58;13.50;99.90
58517;DHT22;44308;50.810;0.284;2022-11-15T03:43:52;13.20;99.90
58517;DHT22;44308;50.810;0.284;2022-11-15T03:46:25;13.60;99.90
58517;DHT22;44308;50.810;0.284;2022-11-15T03:48:54;13.30;99.90
58517;DHT22;44308;50.810;0.284;2022-11-15T03:51:22;13.70;99.90
58517;DHT22;44308;50.810;0.284;2022-11-15T03:53:48;13.30;99.90
58517;DHT22;44308;50.810;0.284;2022-11-15T03:56:14;13.70;99.90
58517;DHT22;44308;50.810;0.284;2022-11-15T03:58:40;13.50;99.90
58517;DHT22;44308;50.810;0.284;2022-11-15T04:01:05;13.60;99.90
58517;DHT22;44308;50.810;0.284;2022-11-15T04:03:31;13.20;99.90
58517;DHT22;44308;50.810;0.284;2022-11-15T04:06:02;13.20;99.90
58517;DHT22;44308;50.810;0.284;2022-11-15T04:08:27;13.50;99.90
58517;DHT22;44308;50.810;0.284;2022-11-15T04:10:53;13.40;99.90
58517;DHT22;44308;50.810;0.284;2022-11-15T04:13:19;13.40;99.90
58517;DHT22;44308;50.810;0.284;2022-11-15T04:16:03;13.30;99.90
58517;DHT22;44308;50.810;0.284;2022-11-15T04:18:29;13.00;99.90
58517;DHT22;44308;50.810;0.284;2022-11-15T04:20:55;13.30;99.90
58517;DHT22;44308;50.810;0.284;2022-11-15T04:23:39;12.90;99.90
58517;DHT22;44308;50.810;0.284;2022-11-15T04:29:27;13.40;99.90
58517;DHT22;44308;50.810;0.284;2022-11-15T04:32:06;13.40;99.90
58517;DHT22;44308;50.810;0.284;2022-11-15T04:34:32;13.40;99.90
58517;DHT22;44308;50.810;0.284;2022-11-15T04:37:01;13.30;99.90
58517;DHT22;44308;50.810;0.284;2022-11-15T04:39:40;13.40;99.90
58517;DHT22;44308;50.810;0.284;2022-11-15T04:42:06;13.10;99.90
58517;DHT22;44308;50.810;0.284;2022-11-15T04:44:32;13.40;99.90
58517;DHT22;44308;50.810;0.284;2022-11-15T04:46:58;13.20;99.90
58517;DHT22;44308;50.810;0.284;2022-11-15T04:49:23;13.00;99.90
58517;DHT22;44308;50.810;0.284;2022-11-15T04:51:49;13.20;99.90
58517;DHT22;44308;50.810;0.284;2022-11-15T04:54:14;13.40;99.90
58517;DHT22;44308;50.810;0.284;2022-11-15T04:56:41;13.20;99.90
58517;DHT22;44308;50.810;0.284;2022-11-15T04:59:07;12.90;99.90
58517;DHT22;44308;50.810;0.284;2022-11-15T05:01:33;13.40;99.90
58517;DHT22;44308;50.810;0.284;2022-11-15T05:03:58;13.00;99.90
58517;DHT22;44308;50.810;0.284;2022-11-15T05:10:06;12.90;99.90
58517;DHT22;44308;50.810;0.284;2022-11-15T05:12:31;12.90;99.90
58517;DHT22;44308;50.810;0.284;2022-11-15T05:14:59;13.00;99.90
58517;DHT22;44308;50.810;0.284;2022-11-15T05:17:25;13.20;99.90
58517;DHT22;44308;50.810;0.284;2022-11-15T05:19:50;12.90;99.90
58517;DHT22;44308;50.810;0.284;2022-11-15T05:22:17;13.20;99.90
58517;DHT22;44308;50.810;0.284;2022-11-15T05:24:43;13.30;99.90
58517;DHT22;44308;50.810;0.284;2022-11-15T05:27:09;12.80;99.90
58517;DHT22;44308;50.810;0.284;2022-11-15T05:29:35;12.90;99.90
58517;DHT22;44308;50.810;0.284;2022-11-15T05:32:00;13.30;99.90
58517;DHT22;44308;50.810;0.284;2022-11-15T05:34:26;12.80;99.90
58517;DHT22;44308;50.810;0.284;2022-11-15T05:36:52;12.80;99.90
58517;DHT22;44308;50.810;0.284;2022-11-15T05:39:18;13.00;99.90
58517;DHT22;44308;50.810;0.284;2022-11-15T05:41:48;12.80;99.90
58517;DHT22;44308;50.810;0.284;2022-11-15T05:44:18;13.20;99.90
58517;DHT22;44308;50.810;0.284;2022-11-15T05:46:46;13.00;99.90
58517;DHT22;44308;50.810;0.284;2022-11-15T05:49:15;13.20;99.90
58517;DHT22;44308;50.810;0.284;2022-11-15T05:51:43;12.70;99.90
58517;DHT22;44308;50.810;0.284;2022-11-15T05:54:10;13.10;99.90
58517;DHT22;44308;50.810;0.284;2022-11-15T05:56:36;13.10;99.90
58517;DHT22;44308;50.810;0.284;2022-11-15T05:59:02;12.80;99.90
58517;DHT22;44308;50.810;0.284;2022-11-15T06:01:31;13.10;99.90
58517;DHT22;44308;50.810;0.284;2022-11-15T06:03:59;13.20;99.90
58517;DHT22;44308;50.810;0.284;2022-11-15T06:06:27;12.80;99.90
58517;DHT22;44308;50.810;0.284;2022-11-15T06:08:53;12.80;99.90
58517;DHT22;44308;50.810;0.284;2022-11-15T06:11:19;12.80;99.90
58517;DHT22;44308;50.810;0.284;2022-11-15T06:13:44;13.20;99.90
58517;DHT22;44308;50.810;0.284;2022-11-15T06:16:11;12.80;99.90
58517;DHT22;44308;50.810;0.284;2022-11-15T06:18:37;12.80;99.90
58517;DHT22;44308;50.810;0.284;2022-11-15T06:21:04;13.00;99.90
58517;DHT22;44308;50.810;0.284;2022-11-15T06:23:32;13.00;99.90
58517;DHT22;44308;50.810;0.284;2022-11-15T06:26:01;13.20;99.90
58517;DHT22;44308;50.810;0.284;2022-11-15T06:28:31;13.00;99.90
58517;DHT22;44308;50.810;0.284;2022-11-15T06:31:09;12.80;99.90
58517;DHT22;44308;50.810;0.284;2022-11-15T06:33:36;13.30;99.90
58517;DHT22;44308;50.810;0.284;2022-11-15T06:36:04;13.20;99.90
58517;DHT22;44308;50.810;0.284;2022-11-15T06:38:30;13.30;99.90
58517;DHT22;44308;50.810;0.284;2022-11-15T06:41:04;12.90;99.90
58517;DHT22;44308;50.810;0.284;2022-11-15T06:43:30;12.90;99.90
58517;DHT22;44308;50.810;0.284;2022-11-15T06:45:58;12.80;99.90
58517;DHT22;44308;50.810;0.284;2022-11-15T06:48:25;13.00;99.90
58517;DHT22;44308;50.810;0.284;2022-11-15T06:50:55;13.10;99.90
58517;DHT22;44308;50.810;0.284;2022-11-15T06:53:21;13.30;99.90
58517;DHT22;44308;50.810;0.284;2022-11-15T06:56:07;12.80;99.90
58517;DHT22;44308;50.810;0.284;2022-11-15T06:58:33;12.80;99.90
58517;DHT22;44308;50.810;0.284;2022-11-15T07:01:04;13.30;99.90
58517;DHT22;44308;50.810;0.284;2022-11-15T07:03:31;13.30;99.90
58517;DHT22;44308;50.810;0.284;2022-11-15T07:05:58;12.90;99.90
58517;DHT22;44308;50.810;0.284;2022-11-15T07:08:26;13.00;99.90
58517;DHT22;44308;50.810;0.284;2022-11-15T07:10:52;12.80;99.90
58517;DHT22;44308;50.810;0.284;2022-11-15T07:13:18;12.80;99.90
58517;DHT22;44308;50.810;0.284;2022-11-15T07:15:45;13.00;99.90
58517;DHT22;44308;50.810;0.284;2022-11-15T07:18:10;12.90;99.90
58517;DHT22;44308;50.810;0.284;2022-11-15T07:20:36;12.90;99.90
58517;DHT22;44308;50.810;0.284;2022-11-15T07:23:04;12.90;99.90
58517;DHT22;44308;50.810;0.284;2022-11-15T07:25:52;12.80;99.90
58517;DHT22;44308;50.810;0.284;2022-11-15T07:28:28;13.30;99.90
58517;DHT22;44308;50.810;0.284;2022-11-15T07:31:14;13.00;99.90
58517;DHT22;44308;50.810;0.284;2022-11-15T07:34:05;12.90;99.90
58517;DHT22;44308;50.810;0.284;2022-11-15T07:36:32;12.70;99.90
58517;DHT22;44308;50.810;0.284;2022-11-15T07:38:58;12.80;99.90
58517;DHT22;44308;50.810;0.284;2022-11-15T07:41:24;12.90;99.90
58517;DHT22;44308;50.810;0.284;2022-11-15T07:43:52;12.40;99.90
58517;DHT22;44308;50.810;0.284;2022-11-15T07:46:18;12.80;99.90
58517;DHT22;44308;50.810;0.284;2022-11-15T07:48:44;13.00;99.90
58517;DHT22;44308;50.810;0.284;2022-11-15T07:51:14;12.40;99.90
58517;DHT22;44308;50.810;0.284;2022-11-15T07:53:41;12.90;99.90
58517;DHT22;44308;50.810;0.284;2022-11-15T07:56:08;12.80;99.90
58517;DHT22;44308;50.810;0.284;2022-11-15T07:58:34;12.40;99.90
58517;DHT22;44308;50.810;0.284;2022-11-15T08:01:07;12.50;99.90
58517;DHT22;44308;50.810;0.284;2022-11-15T08:03:34;12.90;99.90
58517;DHT22;44308;50.810;0.284;2022-11-15T08:06:01;12.90;99.90
58517;DHT22;44308;50.810;0.284;2022-11-15T08:08:27;12.20;99.90
58517;DHT22;44308;50.810;0.284;2022-11-15T08:10:52;12.10;99.90
58517;DHT22;44308;50.810;0.284;2022-11-15T08:13:20;12.80;99.90
58517;DHT22;44308;50.810;0.284;2022-11-15T08:15:48;12.40;99.90
58517;DHT22;44308;50.810;0.284;2022-11-15T08:18:15;12.60;99.90
58517;DHT22;44308;50.810;0.284;2022-11-15T08:20:42;12.70;99.90
58517;DHT22;44308;50.810;0.284;2022-11-15T08:23:09;12.60;99.90
58517;DHT22;44308;50.810;0.284;2022-11-15T08:25:36;12.20;99.90
58517;DHT22;44308;50.810;0.284;2022-11-15T08:28:05;12.30;99.90
58517;DHT22;44308;50.810;0.284;2022-11-15T08:30:35;12.40;99.90
58517;DHT22;44308;50.810;0.284;2022-11-15T08:33:02;12.20;99.90
58517;DHT22;44308;50.810;0.284;2022-11-15T08:38:33;11.80;99.90
58517;DHT22;44308;50.810;0.284;2022-11-15T08:41:02;12.20;99.90
58517;DHT22;44308;50.810;0.284;2022-11-15T08:43:28;12.50;99.90
58517;DHT22;44308;50.810;0.284;2022-11-15T08:45:58;11.90;99.90
58517;DHT22;44308;50.810;0.284;2022-11-15T08:48:24;11.90;99.90
58517;DHT22;44308;50.810;0.284;2022-11-15T08:50:54;12.30;99.90
58517;DHT22;44308;50.810;0.284;2022-11-15T08:53:20;11.90;99.90
58517;DHT22;44308;50.810;0.284;2022-11-15T08:55:49;12.00;99.90
58517;DHT22;44308;50.810;0.284;2022-11-15T08:58:15;12.60;99.90
58517;DHT22;44308;50.810;0.284;2022-11-15T09:00:40;12.50;99.90
58517;DHT22;44308;50.810;0.284;2022-11-15T09:03:07;12.10;99.90
58517;DHT22;44308;50.810;0.284;2022-11-15T09:05:36;11.90;99.90
58517;DHT22;44308;50.810;0.284;2022-11-15T09:08:03;12.60;99.90
58517;DHT22;44308;50.810;0.284;2022-11-15T09:10:28;12.60;99.90
58517;DHT22;44308;50.810;0.284;2022-11-15T09:12:57;11.80;99.90
58517;DHT22;44308;50.810;0.284;2022-11-15T09:15:24;11.90;99.90
58517;DHT22;44308;50.810;0.284;2022-11-15T09:17:49;12.80;99.90
58517;DHT22;44308;50.810;0.284;2022-11-15T09:20:15;12.80;99.90
58517;DHT22;44308;50.810;0.284;2022-11-15T09:22:41;12.00;99.90
58517;DHT22;44308;50.810;0.284;2022-11-15T09:25:26;12.90;99.90
58517;DHT22;44308;50.810;0.284;2022-11-15T09:27:52;12.00;99.90
58517;DHT22;44308;50.810;0.284;2022-11-15T09:30:18;12.50;99.90
58517;DHT22;44308;50.810;0.284;2022-11-15T09:32:43;12.10;99.90
58517;DHT22;44308;50.810;0.284;2022-11-15T09:35:09;12.60;99.90
58517;DHT22;44308;50.810;0.284;2022-11-15T09:37:35;12.80;99.90
58517;DHT22;44308;50.810;0.284;2022-11-15T09:40:01;11.80;99.90
58517;DHT22;44308;50.810;0.284;2022-11-15T09:50:38;12.80;99.90
58517;DHT22;44308;50.810;0.284;2022-11-15T09:53:10;12.60;99.90
58517;DHT22;44308;50.810;0.284;2022-11-15T09:56:00;11.60;99.90
58517;DHT22;44308;50.810;0.284;2022-11-15T09:58:38;11.70;99.90
58517;DHT22;44308;50.810;0.284;2022-11-15T10:01:08;11.90;99.90
58517;DHT22;44308;50.810;0.284;2022-11-15T10:03:38;13.00;99.90
58517;DHT22;44308;50.810;0.284;2022-11-15T10:06:13;11.70;99.90
58517;DHT22;44308;50.810;0.284;2022-11-15T10:09:10;11.60;99.90
58517;DHT22;44308;50.810;0.284;2022-11-15T10:11:37;12.00;99.90
58517;DHT22;44308;50.810;0.284;2022-11-15T10:14:11;12.90;99.90
58517;DHT22;44308;50.810;0.284;2022-11-15T10:19:38;12.30;99.90
58517;DHT22;44308;50.810;0.284;2022-11-15T10:22:41;13.00;99.90
58517;DHT22;44308;50.810;0.284;2022-11-15T10:27:39;12.10;99.90
58517;DHT22;44308;50.810;0.284;2022-11-15T10:30:16;13.20;99.90
58517;DHT22;44308;50.810;0.284;2022-11-15T10:32:43;12.10;99.90
58517;DHT22;44308;50.810;0.284;2022-11-15T10:35:22;12.80;99.90
58517;DHT22;44308;50.810;0.284;2022-11-15T10:37:48;13.10;99.90
58517;DHT22;44308;50.810;0.284;2022-11-15T10:40:23;12.20;99.90
58517;DHT22;44308;50.810;0.284;2022-11-15T10:45:57;11.70;99.90
58517;DHT22;44308;50.810;0.284;2022-11-15T10:48:42;13.10;99.90
58517;DHT22;44308;50.810;0.284;2022-11-15T10:51:26;11.80;99.90
58517;DHT22;44308;50.810;0.284;2022-11-15T10:53:58;13.30;99.90
58517;DHT22;44308;50.810;0.284;2022-11-15T10:56:26;12.10;99.90
58517;DHT22;44308;50.810;0.284;2022-11-15T10:58:56;11.80;99.90
58517;DHT22;44308;50.810;0.284;2022-11-15T11:01:28;11.90;99.90
58517;DHT22;44308;50.810;0.284;2022-11-15T11:04:13;12.30;99.90
58517;DHT22;44308;50.810;0.284;2022-11-15T11:06:59;12.20;99.90
58517;DHT22;44308;50.810;0.284;2022-11-15T11:09:32;12.80;99.90
58517;DHT22;44308;50.810;0.284;2022-11-15T11:11:59;12.00;99.90
58517;DHT22;44308;50.810;0.284;2022-11-15T11:14:30;12.90;99.90
58517;DHT22;44308;50.810;0.284;2022-11-15T11:37:39;12.70;99.90
58517;DHT22;44308;50.810;0.284;2022-11-15T11:40:30;12.30;99.90
58517;DHT22;44308;50.810;0.284;2022-11-15T11:43:17;12.80;99.90
58517;DHT22;44308;50.810;0.284;2022-11-15T11:48:57;13.40;99.90
58517;DHT22;44308;50.810;0.284;2022-11-15T11:51:40;13.10;99.90
58517;DHT22;44308;50.810;0.284;2022-11-15T11:54:34;12.30;99.90
58517;DHT22;44308;50.810;0.284;2022-11-15T11:57:13;13.00;99.90
58517;DHT22;44308;50.810;0.284;2022-11-15T12:02:43;12.40;99.90
58517;DHT22;44308;50.810;0.284;2022-11-15T12:05:22;12.20;99.90
58517;DHT22;44308;50.810;0.284;2022-11-15T12:07:51;12.60;99.90
58517;DHT22;44308;50.810;0.284;2022-11-15T12:10:28;12.20;99.90
58517;DHT22;44308;50.810;0.284;2022-11-15T12:13:00;12.20;99.90
58517;DHT22;44308;50.810;0.284;2022-11-15T12:15:56;13.70;99.90
58517;DHT22;44308;50.810;0.284;2022-11-15T12:18:24;12.30;99.90
58517;DHT22;44308;50.810;0.284;2022-11-15T12:21:00;13.10;99.90
58517;DHT22;44308;50.810;0.284;2022-11-15T12:23:30;12.60;99.90
58517;DHT22;44308;50.810;0.284;2022-11-15T12:26:04;14.00;99.90
58517;DHT22;44308;50.810;0.284;2022-11-15T12:29:03;12.80;99.90
58517;DHT22;44308;50.810;0.284;2022-11-15T12:31:42;13.70;99.90
58517;DHT22;44308;50.810;0.284;2022-11-15T12:36:49;14.20;99.90
58517;DHT22;44308;50.810;0.284;2022-11-15T12:39:16;12.90;99.90
58517;DHT22;44308;50.810;0.284;2022-11-15T13:02:36;13.60;99.90
58517;DHT22;44308;50.810;0.284;2022-11-15T13:23:12;13.40;99.90
58517;DHT22;44308;50.810;0.284;2022-11-15T13:31:34;13.50;99.90
58517;DHT22;44308;50.810;0.284;2022-11-15T13:34:13;13.10;99.90
58517;DHT22;44308;50.810;0.284;2022-11-15T13:37:01;13.10;99.90
58517;DHT22;44308;50.810;0.284;2022-11-15T13:39:31;13.50;99.90
58517;DHT22;44308;50.810;0.284;2022-11-15T13:41:57;13.30;99.90
58517;DHT22;44308;50.810;0.284;2022-11-15T13:44:32;14.50;99.90
58517;DHT22;44308;50.810;0.284;2022-11-15T13:47:02;15.00;99.90
58517;DHT22;44308;50.810;0.284;2022-11-15T13:49:30;13.20;99.90
58517;DHT22;44308;50.810;0.284;2022-11-15T13:51:57;13.70;99.90
58517;DHT22;44308;50.810;0.284;2022-11-15T13:54:30;13.30;99.90
58517;DHT22;44308;50.810;0.284;2022-11-15T13:59:43;13.10;99.90
58517;DHT22;44308;50.810;0.284;2022-11-15T14:02:15;14.70;99.90
58517;DHT22;44308;50.810;0.284;2022-11-15T14:04:49;14.50;99.90
58517;DHT22;44308;50.810;0.284;2022-11-15T14:07:22;13.10;99.90
58517;DHT22;44308;50.810;0.284;2022-11-15T14:09:48;13.50;99.90
58517;DHT22;44308;50.810;0.284;2022-11-15T14:12:28;14.00;99.90
58517;DHT22;44308;50.810;0.284;2022-11-15T14:14:55;13.90;99.90
58517;DHT22;44308;50.810;0.284;2022-11-15T14:17:33;13.80;99.90
58517;DHT22;44308;50.810;0.284;2022-11-15T14:19:59;13.80;99.90
58517;DHT22;44308;50.810;0.284;2022-11-15T14:22:27;14.30;99.90
58517;DHT22;44308;50.810;0.284;2022-11-15T14:25:14;13.20;99.90
58517;DHT22;44308;50.810;0.284;2022-11-15T14:27:42;14.60;99.90
58517;DHT22;44308;50.810;0.284;2022-11-15T14:30:17;14.70;99.90
58517;DHT22;44308;50.810;0.284;2022-11-15T14:32:44;14.10;99.90
58517;DHT22;44308;50.810;0.284;2022-11-15T14:35:20;13.60;99.90
58517;DHT22;44308;50.810;0.284;2022-11-15T14:37:46;14.60;99.90
58517;DHT22;44308;50.810;0.284;2022-11-15T14:40:15;13.80;99.90
58517;DHT22;44308;50.810;0.284;2022-11-15T14:42:44;13.30;99.90
58517;DHT22;44308;50.810;0.284;2022-11-15T14:45:21;14.20;99.90
58517;DHT22;44308;50.810;0.284;2022-11-15T14:47:47;14.40;99.90
58517;DHT22;44308;50.810;0.284;2022-11-15T14:50:14;13.10;99.90
58517;DHT22;44308;50.810;0.284;2022-11-15T14:52:43;13.00;99.90
58517;DHT22;44308;50.810;0.284;2022-11-15T14:55:27;14.20;99.90
58517;DHT22;44308;50.810;0.284;2022-11-15T14:57:54;13.10;99.90
58517;DHT22;44308;50.810;0.284;2022-11-15T15:00:21;14.30;99.90
58517;DHT22;44308;50.810;0.284;2022-11-15T15:02:47;13.80;99.90
58517;DHT22;44308;50.810;0.284;2022-11-15T15:05:22;14.20;99.90
58517;DHT22;44308;50.810;0.284;2022-11-15T15:07:49;13.40;99.90
58517;DHT22;44308;50.810;0.284;2022-11-15T15:10:16;13.40;99.90
58517;DHT22;44308;50.810;0.284;2022-11-15T15:12:42;14.20;99.90
58517;DHT22;44308;50.810;0.284;2022-11-15T15:15:24;13.50;99.90
58517;DHT22;44308;50.810;0.284;2022-11-15T15:17:50;13.90;99.90
58517;DHT22;44308;50.810;0.284;2022-11-15T15:20:16;14.20;99.90
58517;DHT22;44308;50.810;0.284;2022-11-15T15:22:42;13.20;99.90
58517;DHT22;44308;50.810;0.284;2022-11-15T15:25:47;13.10;99.90
58517;DHT22;44308;50.810;0.284;2022-11-15T15:28:14;13.90;99.90
58517;DHT22;44308;50.810;0.284;2022-11-15T15:30:40;13.20;99.90
58517;DHT22;44308;50.810;0.284;2022-11-15T15:33:06;13.70;99.90
58517;DHT22;44308;50.810;0.284;2022-11-15T15:35:33;13.30;99.90
58517;DHT22;44308;50.810;0.284;2022-11-15T15:37:59;13.70;99.90
58517;DHT22;44308;50.810;0.284;2022-11-15T15:40:28;12.80;99.90
58517;DHT22;44308;50.810;0.284;2022-11-15T15:42:53;13.70;99.90
58517;DHT22;44308;50.810;0.284;2022-11-15T15:45:19;13.80;99.90
58517;DHT22;44308;50.810;0.284;2022-11-15T15:47:45;13.80;99.90
58517;DHT22;44308;50.810;0.284;2022-11-15T15:50:22;13.20;99.90
58517;DHT22;44308;50.810;0.284;2022-11-15T15:52:50;12.90;99.90
58517;DHT22;44308;50.810;0.284;2022-11-15T15:55:16;12.80;99.90
58517;DHT22;44308;50.810;0.284;2022-11-15T15:57:42;13.50;99.90
58517;DHT22;44308;50.810;0.284;2022-11-15T16:00:09;12.70;99.90
58517;DHT22;44308;50.810;0.284;2022-11-15T16:02:35;12.70;99.90
58517;DHT22;44308;50.810;0.284;2022-11-15T16:05:01;13.10;99.90
58517;DHT22;44308;50.810;0.284;2022-11-15T16:07:27;13.30;99.90
58517;DHT22;44308;50.810;0.284;2022-11-15T16:09:54;13.40;99.90
58517;DHT22;44308;50.810;0.284;2022-11-15T16:12:28;12.60;99.90
58517;DHT22;44308;50.810;0.284;2022-11-15T16:14:54;13.30;99.90
58517;DHT22;44308;50.810;0.284;2022-11-15T16:17:25;13.20;99.90
58517;DHT22;44308;50.810;0.284;2022-11-15T16:19:51;13.30;99.90
58517;DHT22;44308;50.810;0.284;2022-11-15T16:22:17;13.40;99.90
58517;DHT22;44308;50.810;0.284;2022-11-15T16:24:43;12.90;99.90
58517;DHT22;44308;50.810;0.284;2022-11-15T16:27:17;12.50;99.90
58517;DHT22;44308;50.810;0.284;2022-11-15T16:29:44;12.50;99.90
58517;DHT22;44308;50.810;0.284;2022-11-15T16:32:10;12.50;99.90
58517;DHT22;44308;50.810;0.284;2022-11-15T16:34:36;12.50;99.90
58517;DHT22;44308;50.810;0.284;2022-11-15T16:37:04;13.10;99.90
58517;DHT22;44308;50.810;0.284;2022-11-15T16:39:30;13.00;99.90
58517;DHT22;44308;50.810;0.284;2022-11-15T16:41:57;12.50;99.90
58517;DHT22;44308;50.810;0.284;2022-11-15T16:44:23;13.10;99.90
58517;DHT22;44308;50.810;0.284;2022-11-15T16:46:50;12.30;99.90
58517;DHT22;44308;50.810;0.284;2022-11-15T16:49:19;12.40;99.90
58517;DHT22;44308;50.810;0.284;2022-11-15T16:51:47;12.90;99.90
58517;DHT22;44308;50.810;0.284;2022-11-15T16:54:13;12.90;99.90
58517;DHT22;44308;50.810;0.284;2022-11-15T16:56:58;12.80;99.90
58517;DHT22;44308;50.810;0.284;2022-11-15T16:59:23;13.00;99.90
58517;DHT22;44308;50.810;0.284;2022-11-15T17:01:49;12.70;99.90
58517;DHT22;44308;50.810;0.284;2022-11-15T17:04:18;12.70;99.90
58517;DHT22;44308;50.810;0.284;2022-11-15T17:06:46;13.30;99.90
58517;DHT22;44308;50.810;0.284;2022-11-15T17:09:22;13.40;99.90
58517;DHT22;44308;50.810;0.284;2022-11-15T17:11:49;13.50;99.90
58517;DHT22;44308;50.810;0.284;2022-11-15T17:14:15;13.50;99.90
58517;DHT22;44308;50.810;0.284;2022-11-15T17:16:42;13.20;99.90
58517;DHT22;44308;50.810;0.284;2022-11-15T17:19:19;13.40;99.90
58517;DHT22;44308;50.810;0.284;2022-11-15T17:21:46;12.90;99.90
58517;DHT22;44308;50.810;0.284;2022-11-15T17:24:13;12.00;99.90
58517;DHT22;44308;50.810;0.284;2022-11-15T17:26:39;11.60;99.90
58517;DHT22;44308;50.810;0.284;2022-11-15T17:29:10;11.70;99.90
58517;DHT22;44308;50.810;0.284;2022-11-15T17:31:39;11.30;99.90
58517;DHT22;44308;50.810;0.284;2022-11-15T17:34:05;11.10;99.90
58517;DHT22;44308;50.810;0.284;2022-11-15T17:36:32;11.40;99.90
58517;DHT22;44308;50.810;0.284;2022-11-15T17:38:58;11.00;99.90
58517;DHT22;44308;50.810;0.284;2022-11-15T17:41:27;11.00;99.90
58517;DHT22;44308;50.810;0.284;2022-11-15T17:43:56;11.20;99.90
58517;DHT22;44308;50.810;0.284;2022-11-15T17:46:23;11.80;99.90
58517;DHT22;44308;50.810;0.284;2022-11-15T17:48:49;11.90;99.90
58517;DHT22;44308;50.810;0.284;2022-11-15T17:51:16;11.90;99.90
58517;DHT22;44308;50.810;0.284;2022-11-15T17:53:44;11.80;99.90
58517;DHT22;44308;50.810;0.284;2022-11-15T17:56:17;11.00;99.90
58517;DHT22;44308;50.810;0.284;2022-11-15T17:58:59;11.00;99.90
58517;DHT22;44308;50.810;0.284;2022-11-15T18:01:27;11.60;99.90
58517;DHT22;44308;50.810;0.284;2022-11-15T18:03:53;11.00;99.90
58517;DHT22;44308;50.810;0.284;2022-11-15T18:06:23;11.60;99.90
58517;DHT22;44308;50.810;0.284;2022-11-15T18:08:50;11.10;99.90
58517;DHT22;44308;50.810;0.284;2022-11-15T18:11:21;11.10;99.90
58517;DHT22;44308;50.810;0.284;2022-11-15T18:13:52;11.80;99.90